sensor_id;sensor_type;location;lat;lon;timestamp;pressure;altitude;pressure_sealevel;temperature;humidity
74163;BME280;62515;52.758;5.076;2022-11-03T15:05:02;100096.75;;;13.93;86.57
74163;BME280;62515;52.758;5.076;2022-11-03T15:26:15;100061.50;;;13.16;91.47
74163;BME280;62515;52.758;5.076;2022-11-03T15:28:42;100065.44;;;13.12;91.54
74163;BME280;62515;52.758;5.076;2022-11-03T15:31:09;100058.09;;;13.04;92.55
74163;BME280;62515;52.758;5.076;2022-11-03T15:33:36;100051.97;;;12.94;93.48
74163;BME280;62515;52.758;5.076;2022-11-03T15:36:03;100046.75;;;12.92;92.73
74163;BME280;62515;52.758;5.076;2022-11-03T15:38:30;100039.72;;;12.91;92.99
74163;BME280;62515;52.758;5.076;2022-11-03T15:40:57;100043.69;;;12.87;93.57
74163;BME280;62515;52.758;5.076;2022-11-03T15:43:43;100026.53;;;12.80;94.17
74163;BME280;62515;52.758;5.076;2022-11-03T15:46:11;100034.84;;;12.77;95.04
74163;BME280;62515;52.758;5.076;2022-11-03T15:48:40;100018.84;;;12.68;95.63
74163;BME280;62515;52.758;5.076;2022-11-03T15:51:08;99995.25;;;12.63;95.97
74163;BME280;62515;52.758;5.076;2022-11-03T15:53:35;99991.31;;;12.57;96.29
74163;BME280;62515;52.758;5.076;2022-11-03T15:56:03;99983.72;;;12.53;96.20
74163;BME280;62515;52.758;5.076;2022-11-03T15:58:30;99991.19;;;12.49;95.97
74163;BME280;62515;52.758;5.076;2022-11-03T16:01:01;99986.28;;;12.45;96.23
74163;BME280;62515;52.758;5.076;2022-11-03T16:03:31;99967.19;;;12.40;96.95
74163;BME280;62515;52.758;5.076;2022-11-03T16:05:58;99965.22;;;12.32;97.60
74163;BME280;62515;52.758;5.076;2022-11-03T16:08:25;99960.44;;;12.26;97.54
74163;BME280;62515;52.758;5.076;2022-11-03T16:10:51;99949.50;;;12.20;97.42
74163;BME280;62515;52.758;5.076;2022-11-03T16:13:23;99953.44;;;12.25;96.96
74163;BME280;62515;52.758;5.076;2022-11-03T16:15:50;99956.94;;;12.26;96.41
74163;BME280;62515;52.758;5.076;2022-11-03T16:18:18;99957.94;;;12.34;95.04
74163;BME280;62515;52.758;5.076;2022-11-03T16:20:45;99959.47;;;12.37;94.82
74163;BME280;62515;52.758;5.076;2022-11-03T16:23:12;99956.94;;;12.45;93.58
74163;BME280;62515;52.758;5.076;2022-11-03T16:25:39;99964.06;;;12.54;92.89
74163;BME280;62515;52.758;5.076;2022-11-03T16:28:06;99960.41;;;12.55;93.08
74163;BME280;62515;52.758;5.076;2022-11-03T16:30:34;99950.56;;;12.55;91.91
74163;BME280;62515;52.758;5.076;2022-11-03T16:33:04;99941.16;;;12.61;92.12
74163;BME280;62515;52.758;5.076;2022-11-03T16:35:32;99940.03;;;12.64;91.91
74163;BME280;62515;52.758;5.076;2022-11-03T16:37:58;99943.13;;;12.59;92.06
74163;BME280;62515;52.758;5.076;2022-11-03T16:40:25;99944.81;;;12.60;92.38
74163;BME280;62515;52.758;5.076;2022-11-03T16:42:52;99935.69;;;12.53;93.18
74163;BME280;62515;52.758;5.076;2022-11-03T16:45:20;99932.34;;;12.51;92.88
74163;BME280;62515;52.758;5.076;2022-11-03T16:47:48;99931.91;;;12.46;94.22
74163;BME280;62515;52.758;5.076;2022-11-03T16:50:16;99926.88;;;12.43;93.84
74163;BME280;62515;52.758;5.076;2022-11-03T16:52:46;99927.72;;;12.43;93.83
74163;BME280;62515;52.758;5.076;2022-11-03T16:55:13;99917.91;;;12.34;94.74
74163;BME280;62515;52.758;5.076;2022-11-03T16:57:40;99917.34;;;12.31;95.13
74163;BME280;62515;52.758;5.076;2022-11-03T17:00:10;99906.13;;;12.27;95.01
74163;BME280;62515;52.758;5.076;2022-11-03T17:02:40;99906.81;;;12.20;95.82
74163;BME280;62515;52.758;5.076;2022-11-03T17:05:08;99917.34;;;12.31;94.97
74163;BME280;62515;52.758;5.076;2022-11-03T17:07:35;99919.31;;;12.29;95.16
74163;BME280;62515;52.758;5.076;2022-11-03T17:10:04;99907.66;;;12.30;94.84
74163;BME280;62515;52.758;5.076;2022-11-03T17:12:32;99909.91;;;12.25;95.35
74163;BME280;62515;52.758;5.076;2022-11-03T17:14:59;99912.69;;;12.33;95.29
74163;BME280;62515;52.758;5.076;2022-11-03T17:17:26;99922.00;;;12.29;96.00
74163;BME280;62515;52.758;5.076;2022-11-03T17:19:53;99906.81;;;12.20;97.08
74163;BME280;62515;52.758;5.076;2022-11-03T17:22:20;99910.34;;;12.11;98.26
74163;BME280;62515;52.758;5.076;2022-11-03T17:24:49;99919.03;;;12.03;99.60
74163;BME280;62515;52.758;5.076;2022-11-03T17:27:20;99914.44;;;11.95;100.00
74163;BME280;62515;52.758;5.076;2022-11-03T17:29:51;99909.38;;;11.92;100.00
74163;BME280;62515;52.758;5.076;2022-11-03T17:32:22;99908.81;;;11.89;100.00
74163;BME280;62515;52.758;5.076;2022-11-03T17:34:51;99903.06;;;11.84;100.00
74163;BME280;62515;52.758;5.076;2022-11-03T17:37:18;99911.06;;;11.84;100.00
74163;BME280;62515;52.758;5.076;2022-11-03T17:39:46;99905.88;;;11.82;100.00
74163;BME280;62515;52.758;5.076;2022-11-03T17:42:14;99909.97;;;11.77;100.00
74163;BME280;62515;52.758;5.076;2022-11-03T17:44:43;99900.09;;;11.77;100.00
74163;BME280;62515;52.758;5.076;2022-11-03T17:47:10;99905.16;;;11.80;100.00
74163;BME280;62515;52.758;5.076;2022-11-03T17:49:37;99897.31;;;11.79;100.00
74163;BME280;62515;52.758;5.076;2022-11-03T17:52:05;99897.59;;;11.76;100.00
74163;BME280;62515;52.758;5.076;2022-11-03T17:54:35;99899.28;;;11.77;100.00
74163;BME280;62515;52.758;5.076;2022-11-03T17:57:02;99900.69;;;11.71;100.00
74163;BME280;62515;52.758;5.076;2022-11-03T17:59:29;99890.81;;;11.62;100.00
74163;BME280;62515;52.758;5.076;2022-11-03T18:01:58;99895.59;;;11.59;100.00
74163;BME280;62515;52.758;5.076;2022-11-03T18:04:25;99887.47;;;11.60;100.00
74163;BME280;62515;52.758;5.076;2022-11-03T18:06:51;99889.41;;;11.58;100.00
74163;BME280;62515;52.758;5.076;2022-11-03T18:09:18;99880.56;;;11.57;100.00
74163;BME280;62515;52.758;5.076;2022-11-03T18:11:45;99886.06;;;11.56;100.00
74163;BME280;62515;52.758;5.076;2022-11-03T18:14:30;99881.56;;;11.57;100.00
74163;BME280;62515;52.758;5.076;2022-11-03T18:16:59;99878.63;;;11.50;100.00
74163;BME280;62515;52.758;5.076;2022-11-03T18:19:26;99875.69;;;11.53;100.00
74163;BME280;62515;52.758;5.076;2022-11-03T18:21:53;99877.22;;;11.46;100.00
74163;BME280;62515;52.758;5.076;2022-11-03T18:24:20;99875.38;;;11.46;100.00
74163;BME280;62515;52.758;5.076;2022-11-03T18:26:47;99879.31;;;11.42;100.00
74163;BME280;62515;52.758;5.076;2022-11-03T18:29:14;99871.59;;;11.39;100.00
74163;BME280;62515;52.758;5.076;2022-11-03T18:31:43;99867.25;;;11.38;100.00
74163;BME280;62515;52.758;5.076;2022-11-03T18:34:16;99864.72;;;11.37;100.00
74163;BME280;62515;52.758;5.076;2022-11-03T18:36:44;99843.13;;;11.30;100.00
74163;BME280;62515;52.758;5.076;2022-11-03T18:39:16;99857.28;;;11.31;100.00
74163;BME280;62515;52.758;5.076;2022-11-03T18:41:45;99859.97;;;11.31;100.00
74163;BME280;62515;52.758;5.076;2022-11-03T18:44:15;99859.13;;;11.30;100.00
74163;BME280;62515;52.758;5.076;2022-11-03T18:46:42;99855.47;;;11.31;100.00
74163;BME280;62515;52.758;5.076;2022-11-03T18:49:09;99863.31;;;11.33;100.00
74163;BME280;62515;52.758;5.076;2022-11-03T18:51:38;99852.94;;;11.30;100.00
74163;BME280;62515;52.758;5.076;2022-11-03T18:54:07;99845.91;;;11.29;100.00
74163;BME280;62515;52.758;5.076;2022-11-03T18:56:38;99845.91;;;11.29;100.00
74163;BME280;62515;52.758;5.076;2022-11-03T18:59:05;99841.59;;;11.28;100.00
74163;BME280;62515;52.758;5.076;2022-11-03T19:01:32;99836.97;;;11.30;100.00
74163;BME280;62515;52.758;5.076;2022-11-03T19:03:59;99832.75;;;11.27;100.00
74163;BME280;62515;52.758;5.076;2022-11-03T19:06:25;99817.91;;;11.25;100.00
74163;BME280;62515;52.758;5.076;2022-11-03T19:08:56;99828.41;;;11.26;100.00
74163;BME280;62515;52.758;5.076;2022-11-03T19:11:25;99826.84;;;11.24;100.00
74163;BME280;62515;52.758;5.076;2022-11-03T19:13:52;99819.72;;;11.24;100.00
74163;BME280;62515;52.758;5.076;2022-11-03T19:16:21;99816.50;;;11.21;100.00
74163;BME280;62515;52.758;5.076;2022-11-03T19:18:49;99810.31;;;11.20;100.00
74163;BME280;62515;52.758;5.076;2022-11-03T19:21:18;99814.50;;;11.23;100.00
74163;BME280;62515;52.758;5.076;2022-11-03T19:23:46;99798.41;;;11.24;100.00
74163;BME280;62515;52.758;5.076;2022-11-03T19:26:18;99803.16;;;11.21;100.00
74163;BME280;62515;52.758;5.076;2022-11-03T19:28:49;99802.31;;;11.20;100.00
74163;BME280;62515;52.758;5.076;2022-11-03T19:31:20;99807.78;;;11.19;100.00
74163;BME280;62515;52.758;5.076;2022-11-03T19:33:49;99799.50;;;11.22;100.00
74163;BME280;62515;52.758;5.076;2022-11-03T19:36:19;99803.88;;;11.23;100.00
74163;BME280;62515;52.758;5.076;2022-11-03T19:38:46;99807.25;;;11.25;100.00
74163;BME280;62515;52.758;5.076;2022-11-03T19:41:16;99801.91;;;11.25;100.00
74163;BME280;62515;52.758;5.076;2022-11-03T19:44:07;99798.53;;;11.23;100.00
74163;BME280;62515;52.758;5.076;2022-11-03T19:46:35;99793.22;;;11.23;100.00
74163;BME280;62515;52.758;5.076;2022-11-03T19:49:02;99779.91;;;11.23;100.00
74163;BME280;62515;52.758;5.076;2022-11-03T19:51:29;99788.03;;;11.21;100.00
74163;BME280;62515;52.758;5.076;2022-11-03T19:53:56;99786.34;;;11.20;100.00
74163;BME280;62515;52.758;5.076;2022-11-03T19:56:24;99784.81;;;11.18;100.00
74163;BME280;62515;52.758;5.076;2022-11-03T19:58:52;99756.78;;;11.14;100.00
74163;BME280;62515;52.758;5.076;2022-11-03T20:01:19;99753.69;;;11.18;100.00
74163;BME280;62515;52.758;5.076;2022-11-03T20:03:46;99748.38;;;11.18;100.00
74163;BME280;62515;52.758;5.076;2022-11-03T20:06:12;99743.06;;;11.18;100.00
74163;BME280;62515;52.758;5.076;2022-11-03T20:08:44;99747.66;;;11.16;100.00
74163;BME280;62515;52.758;5.076;2022-11-03T20:11:13;99743.88;;;11.19;100.00
74163;BME280;62515;52.758;5.076;2022-11-03T20:13:42;99751.56;;;11.22;100.00
74163;BME280;62515;52.758;5.076;2022-11-03T20:16:10;99739.53;;;11.18;100.00
74163;BME280;62515;52.758;5.076;2022-11-03T20:18:37;99741.19;;;11.19;100.00
74163;BME280;62515;52.758;5.076;2022-11-03T20:21:05;99742.91;;;11.20;100.00
74163;BME280;62515;52.758;5.076;2022-11-03T20:23:33;99741.06;;;11.20;100.00
74163;BME280;62515;52.758;5.076;2022-11-03T20:26:01;99741.91;;;11.21;100.00
74163;BME280;62515;52.758;5.076;2022-11-03T20:28:29;99728.88;;;11.18;100.00
74163;BME280;62515;52.758;5.076;2022-11-03T20:30:58;99738.25;;;11.22;100.00
74163;BME280;62515;52.758;5.076;2022-11-03T20:33:27;99723.41;;;11.19;100.00
74163;BME280;62515;52.758;5.076;2022-11-03T20:35:54;99721.75;;;11.18;100.00
74163;BME280;62515;52.758;5.076;2022-11-03T20:38:23;99717.78;;;11.22;100.00
74163;BME280;62515;52.758;5.076;2022-11-03T20:40:54;99720.63;;;11.21;100.00
74163;BME280;62515;52.758;5.076;2022-11-03T20:43:27;99739.66;;;11.26;100.00
74163;BME280;62515;52.758;5.076;2022-11-03T20:45:55;99740.66;;;11.25;100.00
74163;BME280;62515;52.758;5.076;2022-11-03T20:48:24;99736.88;;;11.27;100.00
74163;BME280;62515;52.758;5.076;2022-11-03T20:50:51;99742.75;;;11.31;100.00
74163;BME280;62515;52.758;5.076;2022-11-03T20:53:20;99742.75;;;11.31;100.00
74163;BME280;62515;52.758;5.076;2022-11-03T20:55:49;99738.28;;;11.31;100.00
74163;BME280;62515;52.758;5.076;2022-11-03T20:58:17;99738.28;;;11.31;100.00
74163;BME280;62515;52.758;5.076;2022-11-03T21:00:45;99736.31;;;11.33;100.00
74163;BME280;62515;52.758;5.076;2022-11-03T21:03:17;99733.78;;;11.32;100.00
74163;BME280;62515;52.758;5.076;2022-11-03T21:06:06;99726.78;;;11.31;100.00
74163;BME280;62515;52.758;5.076;2022-11-03T21:08:33;99726.06;;;11.29;100.00
74163;BME280;62515;52.758;5.076;2022-11-03T21:11:00;99732.22;;;11.29;100.00
74163;BME280;62515;52.758;5.076;2022-11-03T21:13:49;99728.72;;;11.29;100.00
74163;BME280;62515;52.758;5.076;2022-11-03T21:16:17;99720.91;;;11.27;100.00
74163;BME280;62515;52.758;5.076;2022-11-03T21:19:04;99708.97;;;11.22;100.00
74163;BME280;62515;52.758;5.076;2022-11-03T21:21:54;99706.59;;;11.19;100.00
74163;BME280;62515;52.758;5.076;2022-11-03T21:24:21;99715.56;;;11.18;100.00
74163;BME280;62515;52.758;5.076;2022-11-03T21:26:48;99722.84;;;11.16;100.00
74163;BME280;62515;52.758;5.076;2022-11-03T21:29:15;99713.19;;;11.15;100.00
74163;BME280;62515;52.758;5.076;2022-11-03T21:31:58;99713.31;;;11.13;100.00
74163;BME280;62515;52.758;5.076;2022-11-03T21:34:25;99727.59;;;11.12;100.00
74163;BME280;62515;52.758;5.076;2022-11-03T21:36:52;99733.22;;;11.09;100.00
74163;BME280;62515;52.758;5.076;2022-11-03T21:39:20;99736.88;;;11.08;100.00
74163;BME280;62515;52.758;5.076;2022-11-03T21:41:47;99743.28;;;11.06;100.00
74163;BME280;62515;52.758;5.076;2022-11-03T21:44:33;99753.13;;;11.05;100.00
74163;BME280;62515;52.758;5.076;2022-11-03T21:47:00;99749.75;;;11.03;100.00
74163;BME280;62515;52.758;5.076;2022-11-03T21:49:27;99754.94;;;11.05;100.00
74163;BME280;62515;52.758;5.076;2022-11-03T21:52:10;99751.00;;;10.99;100.00
74163;BME280;62515;52.758;5.076;2022-11-03T21:54:39;99766.00;;;10.90;100.00
74163;BME280;62515;52.758;5.076;2022-11-03T21:57:07;99773.22;;;10.60;100.00
74163;BME280;62515;52.758;5.076;2022-11-03T21:59:34;99791.31;;;10.35;100.00
74163;BME280;62515;52.758;5.076;2022-11-03T22:02:02;99811.41;;;10.19;100.00
74163;BME280;62515;52.758;5.076;2022-11-03T22:04:29;99824.03;;;10.06;100.00
74163;BME280;62515;52.758;5.076;2022-11-03T22:06:57;99845.38;;;9.94;100.00
74163;BME280;62515;52.758;5.076;2022-11-03T22:09:26;99846.13;;;9.85;100.00
74163;BME280;62515;52.758;5.076;2022-11-03T22:11:54;99840.38;;;9.80;100.00
74163;BME280;62515;52.758;5.076;2022-11-03T22:14:21;99851.13;;;9.79;100.00
74163;BME280;62515;52.758;5.076;2022-11-03T22:16:48;99867.78;;;9.81;100.00
74163;BME280;62515;52.758;5.076;2022-11-03T22:19:16;99862.34;;;9.82;100.00
74163;BME280;62515;52.758;5.076;2022-11-03T22:22:04;99864.72;;;9.85;100.00
74163;BME280;62515;52.758;5.076;2022-11-03T22:24:50;99867.84;;;9.90;100.00
74163;BME280;62515;52.758;5.076;2022-11-03T22:27:36;99867.84;;;9.90;100.00
74163;BME280;62515;52.758;5.076;2022-11-03T22:30:04;99866.91;;;9.91;100.00
74163;BME280;62515;52.758;5.076;2022-11-03T22:32:51;99860.47;;;9.94;100.00
74163;BME280;62515;52.758;5.076;2022-11-03T22:35:20;99852.63;;;9.92;100.00
74163;BME280;62515;52.758;5.076;2022-11-03T22:38:07;99848.16;;;9.93;100.00
74163;BME280;62515;52.758;5.076;2022-11-03T22:40:35;99856.00;;;9.94;100.00
74163;BME280;62515;52.758;5.076;2022-11-03T22:43:23;99863.97;;;9.94;100.00
74163;BME280;62515;52.758;5.076;2022-11-03T22:46:10;99875.56;;;9.93;100.00
74163;BME280;62515;52.758;5.076;2022-11-03T22:48:37;99874.97;;;9.90;100.00
74163;BME280;62515;52.758;5.076;2022-11-03T22:51:06;99871.47;;;9.89;100.00
74163;BME280;62515;52.758;5.076;2022-11-03T22:53:35;99882.25;;;9.88;100.00
74163;BME280;62515;52.758;5.076;2022-11-03T22:56:21;99882.00;;;9.91;100.00
74163;BME280;62515;52.758;5.076;2022-11-03T22:58:50;99877.66;;;9.90;100.00
74163;BME280;62515;52.758;5.076;2022-11-03T23:01:18;99883.66;;;9.92;100.00
74163;BME280;62515;52.758;5.076;2022-11-03T23:03:46;99872.31;;;9.90;100.00
74163;BME280;62515;52.758;5.076;2022-11-03T23:06:16;99874.41;;;9.86;100.00
74163;BME280;62515;52.758;5.076;2022-11-03T23:08:43;99891.91;;;9.89;100.00
74163;BME280;62515;52.758;5.076;2022-11-03T23:11:13;99886.31;;;9.92;100.00
74163;BME280;62515;52.758;5.076;2022-11-03T23:13:42;99879.19;;;9.92;100.00
74163;BME280;62515;52.758;5.076;2022-11-03T23:16:13;99887.63;;;9.97;100.00
74163;BME280;62515;52.758;5.076;2022-11-03T23:18:40;99892.69;;;10.01;100.00
74163;BME280;62515;52.758;5.076;2022-11-03T23:21:26;99909.22;;;10.04;100.00
74163;BME280;62515;52.758;5.076;2022-11-03T23:23:57;99910.06;;;10.05;100.00
74163;BME280;62515;52.758;5.076;2022-11-03T23:26:43;99924.06;;;10.07;100.00
74163;BME280;62515;52.758;5.076;2022-11-03T23:29:11;99928.53;;;10.06;100.00
74163;BME280;62515;52.758;5.076;2022-11-03T23:31:43;99941.56;;;10.09;100.00
74163;BME280;62515;52.758;5.076;2022-11-03T23:34:11;99940.34;;;10.13;100.00
74163;BME280;62515;52.758;5.076;2022-11-03T23:36:39;99939.50;;;10.13;100.00
74163;BME280;62515;52.758;5.076;2022-11-03T23:39:06;99941.69;;;10.19;100.00
74163;BME280;62515;52.758;5.076;2022-11-03T23:41:33;99952.06;;;10.22;100.00
74163;BME280;62515;52.758;5.076;2022-11-03T23:44:00;99948.69;;;10.20;100.00
74163;BME280;62515;52.758;5.076;2022-11-03T23:46:27;99952.31;;;10.19;100.00
74163;BME280;62515;52.758;5.076;2022-11-03T23:49:14;99949.78;;;10.17;100.00
74163;BME280;62515;52.758;5.076;2022-11-03T23:51:41;99950.63;;;10.18;100.00
74163;BME280;62515;52.758;5.076;2022-11-03T23:54:09;99967.31;;;10.20;100.00
74163;BME280;62515;52.758;5.076;2022-11-03T23:56:37;99961.72;;;10.23;100.00
74163;BME280;62515;52.758;5.076;2022-11-03T23:59:24;99968.84;;;10.22;100.00
